This is the latest recevied weather packets stored in our database for station/object KE4LOJ. If no packets are shown the sender has not sent any weather packets the latest 10 day(s).
| Time | Temp. | Humidity | Pressure | Rain* | Wind** | Luminosity | Snow |
|---|---|---|---|---|---|---|---|
| 1777478059 | 28.33° C | 61% | 1017.6 hPa | 0 mm | - | 739 W/m² | - |
| 1777477757 | 27.22° C | 64% | 1017.6 hPa | 0 mm | - | 723 W/m² | - |
| 1777477451 | 26.67° C | 66% | 1017.8 hPa | 0 mm | - | 711 W/m² | - |
| 1777477148 | 27.22° C | 64% | 1017.8 hPa | 0 mm | - | 452 W/m² | - |
| 1777476844 | 27.78° C | 64% | 1018 hPa | 0 mm | - | 668 W/m² | - |
| 1777476542 | 27.22° C | 64% | 1018.2 hPa | 0 mm | - | 653 W/m² | - |
| 1777476238 | 26.67° C | 67% | 1018.2 hPa | 0 mm | - | 661 W/m² | - |
| 1777475933 | 27.22° C | 63% | 1018.2 hPa | 0 mm | - | 134 W/m² | - |
| 1777475630 | 27.22° C | 67% | 1018.2 hPa | 0 mm | - | 650 W/m² | - |
| 1777475327 | 26.67° C | 68% | 1018.1 hPa | 0 mm | - | 633 W/m² | - |
| 1777475021 | 26.67° C | 68% | 1018.2 hPa | 0 mm | - | 618 W/m² | - |
| 1777474719 | 26.67° C | 69% | 1018.2 hPa | 0 mm | - | 612 W/m² | - |
| 1777474415 | 26.67° C | 72% | 1018.5 hPa | 0 mm | - | 608 W/m² | - |
| 1777474111 | 26.67° C | 71% | 1018.4 hPa | 0 mm | - | 594 W/m² | - |
| 1777473810 | 26.11° C | 74% | 1018.2 hPa | 0 mm | - | 577 W/m² | - |
| 1777473506 | 25.56° C | 74% | 1018.5 hPa | 0 mm | - | 563 W/m² | - |
| 1777473201 | 25.56° C | 74% | 1018.5 hPa | 0 mm | - | 528 W/m² | - |
| 1777472898 | 25° C | 76% | 1018.5 hPa | 0 mm | - | 478 W/m² | - |
| 1777472595 | 25° C | 75% | 1018.6 hPa | 0 mm | - | 324 W/m² | - |
| 1777472292 | 25.56° C | 76% | 1018.6 hPa | 0 mm | - | 255 W/m² | - |
| 1777471989 | 25° C | 78% | 1018.7 hPa | 0 mm | - | 228 W/m² | - |
| 1777471684 | 25° C | 78% | 1018.8 hPa | 0 mm | - | 191 W/m² | - |
| 1777471381 | 25° C | 78% | 1018.6 hPa | 0 mm | - | 194 W/m² | - |
| 1777471077 | 25° C | 79% | 1018.8 hPa | 0 mm | - | 222 W/m² | - |
| 1777470774 | 24.44° C | 81% | 1018.7 hPa | 0 mm | - | 218 W/m² | - |
* Rain latest hour (hover to see other rain measurements)
** Current wind speed in m/s (hover to see current wind gust speed)